sensor_id;sensor_type;location;lat;lon;timestamp;P1;durP1;ratioP1;P2;durP2;ratioP2
19985;SDS011;10154;52.474;10.768;2022-09-16T00:00:21;5.43;;;3.40;;
19985;SDS011;10154;52.474;10.768;2022-09-16T00:02:50;6.87;;;3.50;;
19985;SDS011;10154;52.474;10.768;2022-09-16T00:05:17;6.50;;;3.20;;
19985;SDS011;10154;52.474;10.768;2022-09-16T00:07:44;7.00;;;3.30;;
19985;SDS011;10154;52.474;10.768;2022-09-16T00:10:10;5.60;;;3.40;;
19985;SDS011;10154;52.474;10.768;2022-09-16T00:12:37;6.07;;;3.00;;
19985;SDS011;10154;52.474;10.768;2022-09-16T00:15:04;5.97;;;3.23;;
19985;SDS011;10154;52.474;10.768;2022-09-16T00:17:31;3.40;;;3.10;;
19985;SDS011;10154;52.474;10.768;2022-09-16T00:19:58;5.10;;;3.40;;
19985;SDS011;10154;52.474;10.768;2022-09-16T00:22:28;3.43;;;3.07;;
19985;SDS011;10154;52.474;10.768;2022-09-16T00:24:54;7.70;;;3.57;;
19985;SDS011;10154;52.474;10.768;2022-09-16T00:27:20;12.03;;;3.40;;
19985;SDS011;10154;52.474;10.768;2022-09-16T00:29:47;6.30;;;3.50;;
19985;SDS011;10154;52.474;10.768;2022-09-16T00:32:14;4.40;;;3.40;;
19985;SDS011;10154;52.474;10.768;2022-09-16T00:34:40;9.93;;;3.40;;
19985;SDS011;10154;52.474;10.768;2022-09-16T00:37:07;3.63;;;3.30;;
19985;SDS011;10154;52.474;10.768;2022-09-16T00:39:34;4.67;;;3.13;;
19985;SDS011;10154;52.474;10.768;2022-09-16T00:42:01;6.83;;;3.30;;
19985;SDS011;10154;52.474;10.768;2022-09-16T00:50:04;4.50;;;3.30;;
19985;SDS011;10154;52.474;10.768;2022-09-16T00:52:51;4.93;;;3.03;;
19985;SDS011;10154;52.474;10.768;2022-09-16T00:55:21;5.80;;;3.53;;
19985;SDS011;10154;52.474;10.768;2022-09-16T00:57:52;3.87;;;3.10;;
19985;SDS011;10154;52.474;10.768;2022-09-16T01:00:22;4.13;;;3.27;;
19985;SDS011;10154;52.474;10.768;2022-09-16T01:02:48;7.37;;;3.43;;
19985;SDS011;10154;52.474;10.768;2022-09-16T01:05:16;4.57;;;3.23;;
19985;SDS011;10154;52.474;10.768;2022-09-16T01:07:47;10.97;;;3.20;;
19985;SDS011;10154;52.474;10.768;2022-09-16T01:10:17;5.03;;;3.23;;
19985;SDS011;10154;52.474;10.768;2022-09-16T01:12:48;7.20;;;3.30;;
19985;SDS011;10154;52.474;10.768;2022-09-16T01:15:19;5.83;;;3.50;;
19985;SDS011;10154;52.474;10.768;2022-09-16T01:38:27;7.13;;;3.00;;
19985;SDS011;10154;52.474;10.768;2022-09-16T01:41:16;7.97;;;3.30;;
19985;SDS011;10154;52.474;10.768;2022-09-16T01:47:27;3.83;;;3.40;;
19985;SDS011;10154;52.474;10.768;2022-09-16T01:50:16;4.37;;;3.03;;
19985;SDS011;10154;52.474;10.768;2022-09-16T01:55:47;7.30;;;3.50;;
19985;SDS011;10154;52.474;10.768;2022-09-16T02:01:15;5.57;;;3.30;;
19985;SDS011;10154;52.474;10.768;2022-09-16T02:04:09;4.00;;;3.20;;
19985;SDS011;10154;52.474;10.768;2022-09-16T02:06:47;3.73;;;3.07;;
19985;SDS011;10154;52.474;10.768;2022-09-16T02:09:17;8.60;;;3.50;;
19985;SDS011;10154;52.474;10.768;2022-09-16T02:11:48;5.27;;;3.10;;
19985;SDS011;10154;52.474;10.768;2022-09-16T02:14:17;5.87;;;3.10;;
19985;SDS011;10154;52.474;10.768;2022-09-16T02:16:59;7.03;;;3.07;;
19985;SDS011;10154;52.474;10.768;2022-09-16T02:19:41;8.07;;;3.40;;
19985;SDS011;10154;52.474;10.768;2022-09-16T02:22:30;7.77;;;3.13;;
19985;SDS011;10154;52.474;10.768;2022-09-16T02:25:00;7.67;;;3.00;;
19985;SDS011;10154;52.474;10.768;2022-09-16T02:27:29;6.17;;;3.17;;
19985;SDS011;10154;52.474;10.768;2022-09-16T02:29:59;7.50;;;3.20;;
19985;SDS011;10154;52.474;10.768;2022-09-16T02:32:34;5.37;;;3.10;;
19985;SDS011;10154;52.474;10.768;2022-09-16T02:35:05;9.47;;;3.20;;
19985;SDS011;10154;52.474;10.768;2022-09-16T02:37:38;7.13;;;3.23;;
19985;SDS011;10154;52.474;10.768;2022-09-16T02:40:41;4.50;;;3.20;;
19985;SDS011;10154;52.474;10.768;2022-09-16T02:43:22;6.03;;;3.10;;
19985;SDS011;10154;52.474;10.768;2022-09-16T02:55:09;7.93;;;3.27;;
19985;SDS011;10154;52.474;10.768;2022-09-16T02:57:30;3.63;;;3.00;;
19985;SDS011;10154;52.474;10.768;2022-09-16T02:59:56;6.27;;;2.97;;
19985;SDS011;10154;52.474;10.768;2022-09-16T03:02:23;6.83;;;3.13;;
19985;SDS011;10154;52.474;10.768;2022-09-16T03:04:49;7.87;;;3.57;;
19985;SDS011;10154;52.474;10.768;2022-09-16T03:07:15;7.70;;;3.40;;
19985;SDS011;10154;52.474;10.768;2022-09-16T03:09:42;11.13;;;3.50;;
19985;SDS011;10154;52.474;10.768;2022-09-16T03:18:32;7.10;;;3.70;;
19985;SDS011;10154;52.474;10.768;2022-09-16T03:27:20;6.17;;;3.50;;
19985;SDS011;10154;52.474;10.768;2022-09-16T03:29:57;5.43;;;3.63;;
19985;SDS011;10154;52.474;10.768;2022-09-16T03:32:36;6.93;;;3.50;;
19985;SDS011;10154;52.474;10.768;2022-09-16T03:35:22;7.43;;;3.70;;
19985;SDS011;10154;52.474;10.768;2022-09-16T03:37:52;5.73;;;3.50;;
19985;SDS011;10154;52.474;10.768;2022-09-16T03:40:21;6.17;;;3.40;;
19985;SDS011;10154;52.474;10.768;2022-09-16T03:42:48;5.37;;;3.43;;
19985;SDS011;10154;52.474;10.768;2022-09-16T03:45:16;5.07;;;3.40;;
19985;SDS011;10154;52.474;10.768;2022-09-16T03:47:45;8.53;;;3.70;;
19985;SDS011;10154;52.474;10.768;2022-09-16T03:50:15;6.67;;;3.63;;
19985;SDS011;10154;52.474;10.768;2022-09-16T03:52:42;8.77;;;3.50;;
19985;SDS011;10154;52.474;10.768;2022-09-16T03:55:08;7.77;;;3.40;;
19985;SDS011;10154;52.474;10.768;2022-09-16T03:57:35;6.13;;;3.33;;
19985;SDS011;10154;52.474;10.768;2022-09-16T04:00:02;6.90;;;3.33;;
19985;SDS011;10154;52.474;10.768;2022-09-16T04:02:31;9.57;;;3.70;;
19985;SDS011;10154;52.474;10.768;2022-09-16T04:04:57;5.10;;;3.53;;
19985;SDS011;10154;52.474;10.768;2022-09-16T04:07:24;5.20;;;3.80;;
19985;SDS011;10154;52.474;10.768;2022-09-16T04:09:50;10.03;;;3.60;;
19985;SDS011;10154;52.474;10.768;2022-09-16T04:12:16;5.03;;;3.57;;
19985;SDS011;10154;52.474;10.768;2022-09-16T04:14:42;6.67;;;4.10;;
19985;SDS011;10154;52.474;10.768;2022-09-16T04:17:09;5.93;;;3.73;;
19985;SDS011;10154;52.474;10.768;2022-09-16T04:19:35;6.03;;;3.60;;
19985;SDS011;10154;52.474;10.768;2022-09-16T04:22:01;4.27;;;3.40;;
19985;SDS011;10154;52.474;10.768;2022-09-16T04:24:28;5.63;;;3.53;;
19985;SDS011;10154;52.474;10.768;2022-09-16T04:26:54;7.33;;;3.80;;
19985;SDS011;10154;52.474;10.768;2022-09-16T04:29:20;9.47;;;3.70;;
19985;SDS011;10154;52.474;10.768;2022-09-16T04:31:46;5.53;;;3.60;;
19985;SDS011;10154;52.474;10.768;2022-09-16T04:34:13;7.80;;;4.13;;
19985;SDS011;10154;52.474;10.768;2022-09-16T04:36:39;4.87;;;3.73;;
19985;SDS011;10154;52.474;10.768;2022-09-16T04:39:05;6.17;;;3.33;;
19985;SDS011;10154;52.474;10.768;2022-09-16T04:41:32;6.00;;;3.70;;
19985;SDS011;10154;52.474;10.768;2022-09-16T04:43:59;7.93;;;3.70;;
19985;SDS011;10154;52.474;10.768;2022-09-16T04:46:26;6.33;;;3.40;;
19985;SDS011;10154;52.474;10.768;2022-09-16T04:48:55;6.13;;;3.47;;
19985;SDS011;10154;52.474;10.768;2022-09-16T04:51:22;6.17;;;3.60;;
19985;SDS011;10154;52.474;10.768;2022-09-16T04:53:53;6.00;;;3.47;;
19985;SDS011;10154;52.474;10.768;2022-09-16T04:56:22;3.67;;;3.23;;
19985;SDS011;10154;52.474;10.768;2022-09-16T04:58:51;7.30;;;3.87;;
19985;SDS011;10154;52.474;10.768;2022-09-16T05:01:25;5.93;;;3.37;;
19985;SDS011;10154;52.474;10.768;2022-09-16T05:03:57;6.00;;;3.50;;
19985;SDS011;10154;52.474;10.768;2022-09-16T05:06:27;7.17;;;3.57;;
19985;SDS011;10154;52.474;10.768;2022-09-16T05:09:02;10.43;;;3.43;;
19985;SDS011;10154;52.474;10.768;2022-09-16T05:11:30;8.03;;;3.50;;
19985;SDS011;10154;52.474;10.768;2022-09-16T05:13:59;6.57;;;3.57;;
19985;SDS011;10154;52.474;10.768;2022-09-16T05:16:29;5.80;;;3.80;;
19985;SDS011;10154;52.474;10.768;2022-09-16T05:18:57;9.93;;;3.73;;
19985;SDS011;10154;52.474;10.768;2022-09-16T05:21:26;4.83;;;3.10;;
19985;SDS011;10154;52.474;10.768;2022-09-16T05:23:54;6.17;;;3.20;;
19985;SDS011;10154;52.474;10.768;2022-09-16T05:26:26;8.50;;;3.30;;
19985;SDS011;10154;52.474;10.768;2022-09-16T05:29:07;5.93;;;3.30;;
19985;SDS011;10154;52.474;10.768;2022-09-16T05:31:43;6.50;;;3.50;;
19985;SDS011;10154;52.474;10.768;2022-09-16T05:36:45;6.03;;;3.67;;
19985;SDS011;10154;52.474;10.768;2022-09-16T05:39:15;8.73;;;3.80;;
19985;SDS011;10154;52.474;10.768;2022-09-16T05:41:42;4.90;;;3.80;;
19985;SDS011;10154;52.474;10.768;2022-09-16T05:44:09;7.60;;;3.73;;
19985;SDS011;10154;52.474;10.768;2022-09-16T05:46:36;5.60;;;3.50;;
19985;SDS011;10154;52.474;10.768;2022-09-16T05:49:07;6.47;;;3.70;;
19985;SDS011;10154;52.474;10.768;2022-09-16T05:51:35;10.07;;;4.40;;
19985;SDS011;10154;52.474;10.768;2022-09-16T05:54:06;6.50;;;4.00;;
19985;SDS011;10154;52.474;10.768;2022-09-16T05:56:32;5.43;;;3.40;;
19985;SDS011;10154;52.474;10.768;2022-09-16T05:58:59;5.30;;;3.23;;
19985;SDS011;10154;52.474;10.768;2022-09-16T06:01:27;5.27;;;3.50;;
19985;SDS011;10154;52.474;10.768;2022-09-16T06:03:59;8.13;;;3.70;;
19985;SDS011;10154;52.474;10.768;2022-09-16T06:06:44;4.90;;;3.43;;
19985;SDS011;10154;52.474;10.768;2022-09-16T06:11:45;5.77;;;3.60;;
19985;SDS011;10154;52.474;10.768;2022-09-16T06:14:14;3.80;;;3.17;;
19985;SDS011;10154;52.474;10.768;2022-09-16T06:16:41;5.00;;;3.40;;
19985;SDS011;10154;52.474;10.768;2022-09-16T06:19:10;6.93;;;3.60;;
19985;SDS011;10154;52.474;10.768;2022-09-16T06:21:38;3.70;;;3.13;;
19985;SDS011;10154;52.474;10.768;2022-09-16T06:24:07;6.67;;;3.73;;
19985;SDS011;10154;52.474;10.768;2022-09-16T06:26:35;5.80;;;3.80;;
19985;SDS011;10154;52.474;10.768;2022-09-16T06:29:04;6.63;;;3.30;;
19985;SDS011;10154;52.474;10.768;2022-09-16T06:31:31;7.00;;;3.30;;
19985;SDS011;10154;52.474;10.768;2022-09-16T06:33:58;6.67;;;3.43;;
19985;SDS011;10154;52.474;10.768;2022-09-16T06:36:25;5.37;;;3.50;;
19985;SDS011;10154;52.474;10.768;2022-09-16T06:38:55;7.93;;;3.50;;
19985;SDS011;10154;52.474;10.768;2022-09-16T06:41:21;6.67;;;3.30;;
19985;SDS011;10154;52.474;10.768;2022-09-16T06:43:48;5.13;;;3.40;;
19985;SDS011;10154;52.474;10.768;2022-09-16T06:46:16;4.67;;;3.27;;
19985;SDS011;10154;52.474;10.768;2022-09-16T06:48:47;4.73;;;3.20;;
19985;SDS011;10154;52.474;10.768;2022-09-16T06:51:16;8.17;;;3.17;;
19985;SDS011;10154;52.474;10.768;2022-09-16T06:53:47;5.03;;;3.30;;
19985;SDS011;10154;52.474;10.768;2022-09-16T06:56:14;10.07;;;4.03;;
19985;SDS011;10154;52.474;10.768;2022-09-16T06:58:43;5.00;;;3.40;;
19985;SDS011;10154;52.474;10.768;2022-09-16T07:01:16;5.57;;;3.47;;
19985;SDS011;10154;52.474;10.768;2022-09-16T07:03:46;5.20;;;3.20;;
19985;SDS011;10154;52.474;10.768;2022-09-16T07:06:14;5.77;;;3.50;;
19985;SDS011;10154;52.474;10.768;2022-09-16T07:08:43;8.67;;;3.70;;
19985;SDS011;10154;52.474;10.768;2022-09-16T07:11:11;4.30;;;3.50;;
19985;SDS011;10154;52.474;10.768;2022-09-16T07:13:46;4.73;;;3.20;;
19985;SDS011;10154;52.474;10.768;2022-09-16T07:16:18;3.43;;;3.13;;
19985;SDS011;10154;52.474;10.768;2022-09-16T07:18:51;5.37;;;3.30;;
19985;SDS011;10154;52.474;10.768;2022-09-16T07:21:23;5.90;;;3.67;;
19985;SDS011;10154;52.474;10.768;2022-09-16T07:23:54;4.53;;;3.10;;
19985;SDS011;10154;52.474;10.768;2022-09-16T07:26:23;4.93;;;3.23;;
19985;SDS011;10154;52.474;10.768;2022-09-16T07:28:53;8.93;;;3.57;;
19985;SDS011;10154;52.474;10.768;2022-09-16T07:31:24;5.17;;;3.13;;
19985;SDS011;10154;52.474;10.768;2022-09-16T07:33:54;5.07;;;3.10;;
19985;SDS011;10154;52.474;10.768;2022-09-16T07:36:23;6.23;;;3.23;;
19985;SDS011;10154;52.474;10.768;2022-09-16T07:38:51;5.83;;;3.00;;
19985;SDS011;10154;52.474;10.768;2022-09-16T07:41:22;5.93;;;3.20;;
19985;SDS011;10154;52.474;10.768;2022-09-16T07:43:55;4.43;;;2.77;;
19985;SDS011;10154;52.474;10.768;2022-09-16T07:46:24;6.57;;;2.70;;
19985;SDS011;10154;52.474;10.768;2022-09-16T07:48:52;8.57;;;3.00;;
19985;SDS011;10154;52.474;10.768;2022-09-16T07:51:20;5.27;;;3.00;;
19985;SDS011;10154;52.474;10.768;2022-09-16T07:53:52;4.20;;;2.53;;
19985;SDS011;10154;52.474;10.768;2022-09-16T07:56:21;6.53;;;2.63;;
19985;SDS011;10154;52.474;10.768;2022-09-16T07:58:49;8.20;;;2.40;;
19985;SDS011;10154;52.474;10.768;2022-09-16T08:01:18;4.70;;;2.30;;
19985;SDS011;10154;52.474;10.768;2022-09-16T08:03:45;3.37;;;2.00;;
19985;SDS011;10154;52.474;10.768;2022-09-16T08:06:17;4.30;;;2.00;;
19985;SDS011;10154;52.474;10.768;2022-09-16T08:08:52;6.23;;;1.60;;
19985;SDS011;10154;52.474;10.768;2022-09-16T08:11:22;3.80;;;1.60;;
19985;SDS011;10154;52.474;10.768;2022-09-16T08:13:49;3.30;;;1.70;;
19985;SDS011;10154;52.474;10.768;2022-09-16T08:16:17;7.07;;;1.83;;
19985;SDS011;10154;52.474;10.768;2022-09-16T08:18:46;8.20;;;1.70;;
19985;SDS011;10154;52.474;10.768;2022-09-16T08:21:15;7.97;;;1.80;;
19985;SDS011;10154;52.474;10.768;2022-09-16T08:23:44;5.30;;;1.60;;
19985;SDS011;10154;52.474;10.768;2022-09-16T08:26:12;6.00;;;1.80;;
19985;SDS011;10154;52.474;10.768;2022-09-16T08:28:39;3.47;;;1.50;;
19985;SDS011;10154;52.474;10.768;2022-09-16T08:31:08;6.57;;;1.70;;
19985;SDS011;10154;52.474;10.768;2022-09-16T08:33:34;6.97;;;1.97;;
19985;SDS011;10154;52.474;10.768;2022-09-16T08:36:05;8.40;;;1.60;;
19985;SDS011;10154;52.474;10.768;2022-09-16T08:38:55;4.57;;;1.50;;
19985;SDS011;10154;52.474;10.768;2022-09-16T08:51:50;9.70;;;1.70;;
19985;SDS011;10154;52.474;10.768;2022-09-16T08:57:29;8.27;;;1.83;;
19985;SDS011;10154;52.474;10.768;2022-09-16T09:00:12;8.17;;;1.97;;
19985;SDS011;10154;52.474;10.768;2022-09-16T09:05:23;10.53;;;2.03;;
19985;SDS011;10154;52.474;10.768;2022-09-16T09:10:56;6.03;;;1.50;;
19985;SDS011;10154;52.474;10.768;2022-09-16T09:13:53;9.55;;;1.83;;
19985;SDS011;10154;52.474;10.768;2022-09-16T09:16:40;4.80;;;1.58;;
19985;SDS011;10154;52.474;10.768;2022-09-16T09:36:50;6.68;;;1.40;;
19985;SDS011;10154;52.474;10.768;2022-09-16T09:39:59;9.20;;;1.50;;
19985;SDS011;10154;52.474;10.768;2022-09-16T09:46:11;8.13;;;1.50;;
19985;SDS011;10154;52.474;10.768;2022-09-16T09:48:47;5.35;;;1.20;;
19985;SDS011;10154;52.474;10.768;2022-09-16T09:51:29;8.65;;;1.50;;
19985;SDS011;10154;52.474;10.768;2022-09-16T09:54:00;7.15;;;1.90;;
19985;SDS011;10154;52.474;10.768;2022-09-16T09:56:39;6.75;;;1.40;;
19985;SDS011;10154;52.474;10.768;2022-09-16T09:59:52;4.80;;;1.20;;
19985;SDS011;10154;52.474;10.768;2022-09-16T10:02:17;3.95;;;1.30;;
19985;SDS011;10154;52.474;10.768;2022-09-16T10:04:46;10.23;;;1.60;;
19985;SDS011;10154;52.474;10.768;2022-09-16T10:07:17;5.53;;;1.27;;
19985;SDS011;10154;52.474;10.768;2022-09-16T10:10:03;6.75;;;1.38;;
19985;SDS011;10154;52.474;10.768;2022-09-16T10:12:40;4.63;;;1.38;;
19985;SDS011;10154;52.474;10.768;2022-09-16T10:15:18;8.25;;;1.30;;
19985;SDS011;10154;52.474;10.768;2022-09-16T10:17:57;5.75;;;1.27;;
19985;SDS011;10154;52.474;10.768;2022-09-16T10:20:36;3.88;;;1.27;;
19985;SDS011;10154;52.474;10.768;2022-09-16T10:23:12;5.22;;;1.60;;
19985;SDS011;10154;52.474;10.768;2022-09-16T10:26:01;5.20;;;1.52;;
19985;SDS011;10154;52.474;10.768;2022-09-16T10:28:59;6.60;;;1.45;;
19985;SDS011;10154;52.474;10.768;2022-09-16T10:31:37;8.80;;;1.60;;
19985;SDS011;10154;52.474;10.768;2022-09-16T10:34:12;4.05;;;1.10;;
19985;SDS011;10154;52.474;10.768;2022-09-16T10:37:13;6.07;;;1.60;;
19985;SDS011;10154;52.474;10.768;2022-09-16T10:39:47;7.22;;;1.30;;
19985;SDS011;10154;52.474;10.768;2022-09-16T10:42:19;4.60;;;1.27;;
19985;SDS011;10154;52.474;10.768;2022-09-16T10:44:52;4.38;;;1.10;;
19985;SDS011;10154;52.474;10.768;2022-09-16T10:47:23;4.28;;;1.35;;
19985;SDS011;10154;52.474;10.768;2022-09-16T10:49:53;4.65;;;1.27;;
19985;SDS011;10154;52.474;10.768;2022-09-16T10:52:26;8.70;;;1.40;;
19985;SDS011;10154;52.474;10.768;2022-09-16T10:54:55;4.50;;;1.20;;
19985;SDS011;10154;52.474;10.768;2022-09-16T10:57:33;6.18;;;1.20;;
19985;SDS011;10154;52.474;10.768;2022-09-16T11:00:23;3.60;;;1.15;;
19985;SDS011;10154;52.474;10.768;2022-09-16T11:06:13;3.08;;;1.13;;
19985;SDS011;10154;52.474;10.768;2022-09-16T11:12:16;3.80;;;1.20;;
19985;SDS011;10154;52.474;10.768;2022-09-16T11:15:23;2.70;;;1.13;;
19985;SDS011;10154;52.474;10.768;2022-09-16T11:20:59;7.18;;;1.33;;
19985;SDS011;10154;52.474;10.768;2022-09-16T11:26:11;4.30;;;1.40;;
19985;SDS011;10154;52.474;10.768;2022-09-16T11:52:37;6.55;;;1.50;;
19985;SDS011;10154;52.474;10.768;2022-09-16T11:55:43;5.50;;;1.50;;
19985;SDS011;10154;52.474;10.768;2022-09-16T12:01:19;8.00;;;1.60;;
19985;SDS011;10154;52.474;10.768;2022-09-16T12:04:43;6.40;;;1.42;;
19985;SDS011;10154;52.474;10.768;2022-09-16T12:13:45;5.22;;;1.27;;
19985;SDS011;10154;52.474;10.768;2022-09-16T12:16:32;4.03;;;1.35;;
19985;SDS011;10154;52.474;10.768;2022-09-16T12:19:22;6.38;;;1.50;;
19985;SDS011;10154;52.474;10.768;2022-09-16T12:22:02;7.78;;;1.40;;
19985;SDS011;10154;52.474;10.768;2022-09-16T12:27:56;7.65;;;1.35;;
19985;SDS011;10154;52.474;10.768;2022-09-16T12:30:43;8.18;;;1.30;;
19985;SDS011;10154;52.474;10.768;2022-09-16T12:33:15;7.60;;;1.67;;
19985;SDS011;10154;52.474;10.768;2022-09-16T12:38:31;8.40;;;1.40;;
19985;SDS011;10154;52.474;10.768;2022-09-16T12:44:01;6.88;;;1.48;;
19985;SDS011;10154;52.474;10.768;2022-09-16T13:03:38;3.42;;;1.35;;
19985;SDS011;10154;52.474;10.768;2022-09-16T13:09:20;6.20;;;1.40;;
19985;SDS011;10154;52.474;10.768;2022-09-16T13:12:37;7.53;;;1.60;;
19985;SDS011;10154;52.474;10.768;2022-09-16T13:17:31;5.05;;;1.10;;
19985;SDS011;10154;52.474;10.768;2022-09-16T13:20:21;5.13;;;1.10;;
19985;SDS011;10154;52.474;10.768;2022-09-16T13:23:00;6.78;;;1.27;;
19985;SDS011;10154;52.474;10.768;2022-09-16T13:38:52;9.35;;;1.50;;
19985;SDS011;10154;52.474;10.768;2022-09-16T13:49:55;7.40;;;1.33;;
19985;SDS011;10154;52.474;10.768;2022-09-16T13:52:45;1.90;;;1.05;;
19985;SDS011;10154;52.474;10.768;2022-09-16T13:55:19;4.13;;;1.20;;
19985;SDS011;10154;52.474;10.768;2022-09-16T14:10:22;4.68;;;1.30;;
19985;SDS011;10154;52.474;10.768;2022-09-16T14:13:08;5.25;;;1.17;;
19985;SDS011;10154;52.474;10.768;2022-09-16T14:15:47;4.38;;;1.00;;
19985;SDS011;10154;52.474;10.768;2022-09-16T14:18:18;10.07;;;1.33;;
19985;SDS011;10154;52.474;10.768;2022-09-16T14:20:53;2.63;;;1.00;;
19985;SDS011;10154;52.474;10.768;2022-09-16T14:23:24;5.88;;;1.10;;
19985;SDS011;10154;52.474;10.768;2022-09-16T14:25:52;7.00;;;1.17;;
19985;SDS011;10154;52.474;10.768;2022-09-16T14:30:51;6.18;;;1.10;;
19985;SDS011;10154;52.474;10.768;2022-09-16T14:33:30;6.28;;;1.35;;
19985;SDS011;10154;52.474;10.768;2022-09-16T14:36:09;3.17;;;1.10;;
19985;SDS011;10154;52.474;10.768;2022-09-16T14:38:43;10.33;;;1.30;;
19985;SDS011;10154;52.474;10.768;2022-09-16T14:41:43;6.03;;;1.10;;
19985;SDS011;10154;52.474;10.768;2022-09-16T14:47:00;3.40;;;1.03;;
19985;SDS011;10154;52.474;10.768;2022-09-16T14:49:51;6.80;;;1.37;;
19985;SDS011;10154;52.474;10.768;2022-09-16T14:52:32;5.37;;;1.33;;
19985;SDS011;10154;52.474;10.768;2022-09-16T14:55:00;7.57;;;1.80;;
19985;SDS011;10154;52.474;10.768;2022-09-16T14:57:31;7.97;;;1.30;;
19985;SDS011;10154;52.474;10.768;2022-09-16T14:59:59;7.37;;;1.33;;
19985;SDS011;10154;52.474;10.768;2022-09-16T15:02:40;6.27;;;1.30;;
19985;SDS011;10154;52.474;10.768;2022-09-16T15:05:33;3.93;;;0.90;;
19985;SDS011;10154;52.474;10.768;2022-09-16T15:08:24;6.20;;;1.20;;
19985;SDS011;10154;52.474;10.768;2022-09-16T15:10:58;3.50;;;1.13;;
19985;SDS011;10154;52.474;10.768;2022-09-16T15:13:35;6.00;;;1.10;;
19985;SDS011;10154;52.474;10.768;2022-09-16T15:18:38;5.03;;;1.00;;
19985;SDS011;10154;52.474;10.768;2022-09-16T15:21:33;5.43;;;1.20;;
19985;SDS011;10154;52.474;10.768;2022-09-16T15:24:03;6.40;;;1.20;;
19985;SDS011;10154;52.474;10.768;2022-09-16T15:26:40;12.53;;;1.30;;
19985;SDS011;10154;52.474;10.768;2022-09-16T15:31:42;8.23;;;1.23;;
19985;SDS011;10154;52.474;10.768;2022-09-16T15:36:49;4.27;;;1.10;;
19985;SDS011;10154;52.474;10.768;2022-09-16T15:39:33;4.97;;;1.20;;
19985;SDS011;10154;52.474;10.768;2022-09-16T15:44:46;6.97;;;1.07;;
19985;SDS011;10154;52.474;10.768;2022-09-16T15:47:31;5.20;;;1.23;;
19985;SDS011;10154;52.474;10.768;2022-09-16T15:50:04;3.80;;;1.00;;
19985;SDS011;10154;52.474;10.768;2022-09-16T15:52:51;4.97;;;1.10;;
19985;SDS011;10154;52.474;10.768;2022-09-16T15:55:29;7.07;;;1.00;;
19985;SDS011;10154;52.474;10.768;2022-09-16T16:01:07;8.53;;;1.20;;
19985;SDS011;10154;52.474;10.768;2022-09-16T16:03:57;6.67;;;1.03;;
19985;SDS011;10154;52.474;10.768;2022-09-16T16:09:33;5.33;;;1.00;;
19985;SDS011;10154;52.474;10.768;2022-09-16T16:12:15;5.37;;;1.20;;
19985;SDS011;10154;52.474;10.768;2022-09-16T16:14:42;4.77;;;1.20;;
19985;SDS011;10154;52.474;10.768;2022-09-16T16:17:11;6.63;;;1.20;;
19985;SDS011;10154;52.474;10.768;2022-09-16T16:19:44;4.37;;;0.97;;
19985;SDS011;10154;52.474;10.768;2022-09-16T16:22:12;9.53;;;1.40;;
19985;SDS011;10154;52.474;10.768;2022-09-16T16:24:40;7.67;;;1.17;;
19985;SDS011;10154;52.474;10.768;2022-09-16T16:27:06;6.77;;;1.20;;
19985;SDS011;10154;52.474;10.768;2022-09-16T16:29:33;7.50;;;1.40;;
19985;SDS011;10154;52.474;10.768;2022-09-16T16:32:00;6.10;;;1.20;;
19985;SDS011;10154;52.474;10.768;2022-09-16T16:34:34;3.93;;;1.10;;
19985;SDS011;10154;52.474;10.768;2022-09-16T16:37:03;8.97;;;1.03;;
19985;SDS011;10154;52.474;10.768;2022-09-16T16:39:30;2.47;;;1.00;;
19985;SDS011;10154;52.474;10.768;2022-09-16T16:41:57;3.13;;;1.00;;
19985;SDS011;10154;52.474;10.768;2022-09-16T16:44:29;7.20;;;1.60;;
19985;SDS011;10154;52.474;10.768;2022-09-16T16:46:56;6.50;;;1.60;;
19985;SDS011;10154;52.474;10.768;2022-09-16T16:49:22;7.60;;;1.50;;
19985;SDS011;10154;52.474;10.768;2022-09-16T16:51:50;3.60;;;1.10;;
19985;SDS011;10154;52.474;10.768;2022-09-16T16:54:19;4.90;;;1.00;;
19985;SDS011;10154;52.474;10.768;2022-09-16T16:56:46;4.67;;;1.50;;
19985;SDS011;10154;52.474;10.768;2022-09-16T16:59:16;4.27;;;1.40;;
19985;SDS011;10154;52.474;10.768;2022-09-16T17:01:43;5.20;;;1.50;;
19985;SDS011;10154;52.474;10.768;2022-09-16T17:04:11;6.97;;;1.97;;
19985;SDS011;10154;52.474;10.768;2022-09-16T17:06:40;4.73;;;1.60;;
19985;SDS011;10154;52.474;10.768;2022-09-16T17:09:08;6.17;;;2.20;;
19985;SDS011;10154;52.474;10.768;2022-09-16T17:11:35;6.40;;;2.30;;
19985;SDS011;10154;52.474;10.768;2022-09-16T17:14:14;4.77;;;2.37;;
19985;SDS011;10154;52.474;10.768;2022-09-16T17:16:40;7.63;;;2.67;;
19985;SDS011;10154;52.474;10.768;2022-09-16T17:19:06;4.07;;;2.90;;
19985;SDS011;10154;52.474;10.768;2022-09-16T17:21:35;7.90;;;3.10;;
19985;SDS011;10154;52.474;10.768;2022-09-16T17:24:01;7.53;;;3.30;;
19985;SDS011;10154;52.474;10.768;2022-09-16T17:26:28;6.30;;;3.30;;
19985;SDS011;10154;52.474;10.768;2022-09-16T17:28:54;8.10;;;3.60;;
19985;SDS011;10154;52.474;10.768;2022-09-16T17:31:25;9.53;;;3.60;;
19985;SDS011;10154;52.474;10.768;2022-09-16T17:33:55;2.83;;;2.47;;
19985;SDS011;10154;52.474;10.768;2022-09-16T17:36:27;11.93;;;3.50;;
19985;SDS011;10154;52.474;10.768;2022-09-16T17:38:56;9.03;;;3.03;;
19985;SDS011;10154;52.474;10.768;2022-09-16T17:41:31;9.50;;;3.00;;
19985;SDS011;10154;52.474;10.768;2022-09-16T17:43:58;6.80;;;2.73;;
19985;SDS011;10154;52.474;10.768;2022-09-16T17:46:30;7.73;;;2.80;;
19985;SDS011;10154;52.474;10.768;2022-09-16T17:49:01;6.53;;;2.80;;
19985;SDS011;10154;52.474;10.768;2022-09-16T17:51:32;5.53;;;2.80;;
19985;SDS011;10154;52.474;10.768;2022-09-16T17:53:59;11.00;;;3.43;;
19985;SDS011;10154;52.474;10.768;2022-09-16T17:56:26;9.67;;;3.10;;
19985;SDS011;10154;52.474;10.768;2022-09-16T17:58:53;9.70;;;3.47;;
19985;SDS011;10154;52.474;10.768;2022-09-16T18:01:21;8.50;;;3.30;;
19985;SDS011;10154;52.474;10.768;2022-09-16T18:03:50;11.20;;;3.50;;
19985;SDS011;10154;52.474;10.768;2022-09-16T18:06:19;10.23;;;3.80;;
19985;SDS011;10154;52.474;10.768;2022-09-16T18:08:52;12.53;;;3.60;;
19985;SDS011;10154;52.474;10.768;2022-09-16T18:11:19;11.07;;;3.33;;
19985;SDS011;10154;52.474;10.768;2022-09-16T18:13:47;11.00;;;3.60;;
19985;SDS011;10154;52.474;10.768;2022-09-16T18:16:20;9.27;;;3.63;;
19985;SDS011;10154;52.474;10.768;2022-09-16T18:18:51;11.03;;;3.53;;
19985;SDS011;10154;52.474;10.768;2022-09-16T18:21:19;6.73;;;3.30;;
19985;SDS011;10154;52.474;10.768;2022-09-16T18:23:50;13.37;;;3.90;;
19985;SDS011;10154;52.474;10.768;2022-09-16T18:26:20;14.93;;;3.60;;
19985;SDS011;10154;52.474;10.768;2022-09-16T18:28:47;9.13;;;3.03;;
19985;SDS011;10154;52.474;10.768;2022-09-16T18:31:17;6.80;;;3.37;;
19985;SDS011;10154;52.474;10.768;2022-09-16T18:33:45;9.37;;;3.33;;
19985;SDS011;10154;52.474;10.768;2022-09-16T18:36:14;9.33;;;3.40;;
19985;SDS011;10154;52.474;10.768;2022-09-16T18:38:40;12.90;;;3.10;;
19985;SDS011;10154;52.474;10.768;2022-09-16T18:41:10;11.63;;;3.30;;
19985;SDS011;10154;52.474;10.768;2022-09-16T18:43:44;9.03;;;3.30;;
19985;SDS011;10154;52.474;10.768;2022-09-16T18:48:40;6.80;;;3.10;;
19985;SDS011;10154;52.474;10.768;2022-09-16T18:51:15;8.73;;;3.30;;
19985;SDS011;10154;52.474;10.768;2022-09-16T18:53:59;6.93;;;3.20;;
19985;SDS011;10154;52.474;10.768;2022-09-16T18:56:32;7.97;;;3.20;;
19985;SDS011;10154;52.474;10.768;2022-09-16T18:59:04;8.87;;;3.50;;
19985;SDS011;10154;52.474;10.768;2022-09-16T19:01:42;5.67;;;2.70;;
19985;SDS011;10154;52.474;10.768;2022-09-16T19:04:12;6.97;;;3.20;;